Time;durP1;ratioP1;P1;durP2;ratioP2;P2;SDS_P1;SDS_P2;PMS_P1;PMS_P2;Temp;Humidity;BMP_temperature;BMP_pressure;BME280_temperature;BME280_humidity;BME280_pressure;Samples;Min_cycle;Max_cycle;Signal;HPM_P1;HPM_P2
2021/11/26 13:24:32;;;;;;;7.80;4.27;;;6.00;96.00;;;;;;5101411;27;20464;-77
2021/11/26 13:27:01;;;;;;;8.90;4.73;;;5.90;97.20;;;;;;5106308;28;20375;-78
2021/11/26 13:29:30;;;;;;;9.13;4.73;;;5.90;97.70;;;;;;5087638;28;20068;-73
2021/11/26 13:31:56;;;;;;;11.23;5.37;;;5.90;98.20;;;;;;5087286;28;20339;-77
2021/11/26 13:34:22;;;;;;;8.67;4.43;;;5.80;98.10;;;;;;5088158;28;20725;-75
2021/11/26 13:36:48;;;;;;;13.57;5.23;;;5.80;98.40;;;;;;5088117;28;20329;-77
2021/11/26 13:39:17;;;;;;;10.70;4.43;;;5.90;98.70;;;;;;5087501;28;20444;-78
2021/11/26 13:41:44;;;;;;;12.83;4.93;;;5.90;98.90;;;;;;5087875;28;20090;-76
2021/11/26 13:44:12;;;;;;;6.97;4.43;;;5.90;98.70;;;;;;5106753;28;20305;-81
2021/11/26 13:46:41;;;;;;;10.47;4.87;;;5.90;98.50;;;;;;5105269;28;20627;-81
2021/11/26 13:49:18;;;;;;;9.77;3.90;;;5.90;98.60;;;;;;5106498;28;20799;-83
2021/11/26 13:51:56;;;;;;;11.57;4.83;;;6.00;98.30;;;;;;5105848;28;20702;-79
2021/11/26 13:54:32;;;;;;;9.97;4.47;;;5.90;98.20;;;;;;5104978;28;20285;-81
2021/11/26 13:56:58;;;;;;;10.53;4.57;;;6.00;98.20;;;;;;5087703;28;20393;-78
2021/11/26 13:59:33;;;;;;;11.40;5.27;;;6.00;98.10;;;;;;5104769;28;20281;-81
2021/11/26 14:02:11;;;;;;;13.17;4.43;;;6.00;98.30;;;;;;5106033;28;20309;-77
2021/11/26 14:04:41;;;;;;;11.57;5.10;;;6.00;98.00;;;;;;5087297;28;20838;-77
2021/11/26 14:07:16;;;;;;;12.67;4.50;;;6.00;98.00;;;;;;5102716;28;20274;-78
2021/11/26 14:09:47;;;;;;;10.60;5.60;;;5.90;97.60;;;;;;5105485;28;20282;-78
2021/11/26 14:12:22;;;;;;;12.83;4.70;;;5.90;98.00;;;;;;5105843;28;20780;-80
2021/11/26 14:14:48;;;;;;;14.97;4.60;;;5.90;97.80;;;;;;5086680;28;20347;-83
2021/11/26 14:17:25;;;;;;;9.40;5.10;;;5.80;97.60;;;;;;5085871;28;20355;-85
2021/11/26 14:19:56;;;;;;;14.40;5.23;;;5.80;98.00;;;;;;5087680;28;20638;-81
2021/11/26 14:22:28;;;;;;;11.10;5.05;;;5.80;97.90;;;;;;5086713;28;20346;-85
2021/11/26 14:25:07;;;;;;;9.43;5.57;;;5.80;98.10;;;;;;5105378;28;20052;-81
2021/11/26 14:27:41;;;;;;;10.20;5.17;;;5.80;98.20;;;;;;5105165;28;20366;-82
2021/11/26 14:30:19;;;;;;;9.10;5.27;;;5.80;98.30;;;;;;5086951;28;20290;-81
2021/11/26 14:32:57;;;;;;;10.40;5.33;;;5.70;98.20;;;;;;5104766;28;20751;-76
2021/11/26 14:35:26;;;;;;;9.80;5.40;;;5.70;98.30;;;;;;5100686;28;20289;-78
2021/11/26 14:38:03;;;;;;;16.37;6.33;;;5.60;98.40;;;;;;5076453;28;20297;-79
2021/11/26 14:40:30;;;;;;;12.43;5.93;;;5.60;98.50;;;;;;5095651;28;20823;-80
2021/11/26 14:43:23;;;;;;;12.13;5.83;;;5.60;98.70;;;;;;5072955;28;20334;-80
2021/11/26 14:45:53;;;;;;;7.17;5.40;;;5.50;98.80;;;;;;5091946;28;20308;-81
2021/11/26 14:48:32;;;;;;;9.03;5.93;;;5.60;98.90;;;;;;5074418;28;20286;-85
2021/11/26 14:51:07;;;;;;;10.47;6.23;;;5.60;98.90;;;;;;5092540;28;20317;-80
2021/11/26 14:53:34;;;;;;;10.23;5.90;;;5.60;98.90;;;;;;5092364;28;20277;-83
2021/11/26 14:56:00;;;;;;;13.87;5.80;;;5.60;99.00;;;;;;5090666;28;20296;-85
2021/11/26 14:58:28;;;;;;;11.30;6.13;;;5.50;99.00;;;;;;5072933;28;20282;-81
2021/11/26 15:00:55;;;;;;;9.87;5.23;;;5.50;99.00;;;;;;5073024;28;20134;-84
2021/11/26 15:03:22;;;;;;;10.37;5.33;;;5.50;99.20;;;;;;5071973;28;20321;-78
2021/11/26 15:05:48;;;;;;;13.53;5.37;;;5.40;99.20;;;;;;5072891;28;20293;-84
2021/11/26 15:08:14;;;;;;;9.97;5.43;;;5.40;99.40;;;;;;5090852;28;20361;-76
2021/11/26 15:10:41;;;;;;;10.97;5.43;;;5.30;99.50;;;;;;5071913;28;20365;-77
2021/11/26 15:13:07;;;;;;;11.30;6.47;;;5.30;99.70;;;;;;5090754;28;20294;-76
2021/11/26 15:15:33;;;;;;;9.87;6.77;;;5.30;99.80;;;;;;5090155;28;20286;-78
2021/11/26 15:18:00;;;;;;;11.07;6.43;;;5.30;99.90;;;;;;5071995;28;20124;-77
2021/11/26 15:20:26;;;;;;;8.53;5.97;;;5.30;99.90;;;;;;5090607;28;20312;-82
2021/11/26 15:22:51;;;;;;;10.87;5.97;;;5.30;99.90;;;;;;5090430;28;20314;-77
2021/11/26 15:25:19;;;;;;;11.80;5.13;;;5.20;99.90;;;;;;5091227;28;20046;-87
2021/11/26 15:27:46;;;;;;;8.50;5.37;;;5.20;99.90;;;;;;5091735;28;20071;-85
2021/11/26 15:30:14;;;;;;;9.50;5.37;;;5.10;99.90;;;;;;5092113;28;20297;-82
2021/11/26 15:32:40;;;;;;;9.37;5.97;;;5.10;99.90;;;;;;5090335;28;20336;-74
2021/11/26 15:35:07;;;;;;;7.67;6.07;;;5.00;99.90;;;;;;5090931;28;20285;-78
2021/11/26 15:37:32;;;;;;;8.73;5.23;;;5.00;99.90;;;;;;5091306;28;20287;-82
2021/11/26 15:39:58;;;;;;;6.73;4.93;;;5.00;99.90;;;;;;5071433;28;20659;-78
2021/11/26 15:42:24;;;;;;;8.50;3.73;;;4.90;99.90;;;;;;5089984;28;20040;-76
2021/11/26 15:44:49;;;;;;;6.57;4.13;;;4.90;99.90;;;;;;5089868;28;20040;-82
2021/11/26 15:47:15;;;;;;;6.27;4.27;;;4.80;99.90;;;;;;5089153;28;20456;-80
